ADDS METAR Data INFO
IDs: Format: Raw Decoded Include TAF

Data at: 0939 UTC 17 Oct 2017

METAR for:KMIA (Miami Intl, FL, US)
Text:KMIA 170853Z 00000KT 10SM FEW025 FEW250 24/23 A2993 RMK AO2 SLP137 T02440233 56009 $
Temperature: 24.4°C ( 76°F)
Dewpoint: 23.3°C ( 74°F) [RH = 94%]
Pressure (altimeter):29.93 inches Hg (1013.6 mb) [Sea level pressure: 1013.7 mb]
Winds:calm
Visibility:10 or more sm (16+ km)
Ceiling:at least 12,000 feet AGL
Clouds: few clouds at 2500 feet AGL, few clouds at 25000 feet AGL
QC Flag:SOME DATA ABOVE MAY BE INACCURATE!!!"$" is an indication the sensor requires maintenance.